sensor_id;sensor_type;location;lat;lon;timestamp;P1;durP1;ratioP1;P2;durP2;ratioP2
12818;SDS011;6474;53.474;9.894;2023-09-12T00:00:15;10.77;;;7.82;;
12818;SDS011;6474;53.474;9.894;2023-09-12T00:02:44;13.73;;;7.50;;
12818;SDS011;6474;53.474;9.894;2023-09-12T00:05:12;15.48;;;8.10;;
12818;SDS011;6474;53.474;9.894;2023-09-12T00:07:40;16.70;;;8.55;;
12818;SDS011;6474;53.474;9.894;2023-09-12T00:10:09;10.82;;;7.70;;
12818;SDS011;6474;53.474;9.894;2023-09-12T00:12:37;14.48;;;8.25;;
12818;SDS011;6474;53.474;9.894;2023-09-12T00:15:06;13.88;;;7.72;;
12818;SDS011;6474;53.474;9.894;2023-09-12T00:17:36;16.98;;;8.50;;
12818;SDS011;6474;53.474;9.894;2023-09-12T00:20:05;14.20;;;8.30;;
12818;SDS011;6474;53.474;9.894;2023-09-12T00:22:35;15.57;;;7.85;;
12818;SDS011;6474;53.474;9.894;2023-09-12T00:25:03;15.77;;;8.75;;
12818;SDS011;6474;53.474;9.894;2023-09-12T00:27:32;12.25;;;7.63;;
12818;SDS011;6474;53.474;9.894;2023-09-12T00:30:00;14.55;;;7.47;;
12818;SDS011;6474;53.474;9.894;2023-09-12T00:32:28;15.52;;;8.57;;
12818;SDS011;6474;53.474;9.894;2023-09-12T00:34:57;14.43;;;7.85;;
12818;SDS011;6474;53.474;9.894;2023-09-12T00:37:29;14.85;;;8.50;;
12818;SDS011;6474;53.474;9.894;2023-09-12T00:39:57;9.27;;;7.18;;
12818;SDS011;6474;53.474;9.894;2023-09-12T00:42:25;16.30;;;8.48;;
12818;SDS011;6474;53.474;9.894;2023-09-12T00:44:53;14.43;;;7.78;;
12818;SDS011;6474;53.474;9.894;2023-09-12T00:47:21;15.32;;;8.30;;
12818;SDS011;6474;53.474;9.894;2023-09-12T00:49:50;13.95;;;8.23;;
12818;SDS011;6474;53.474;9.894;2023-09-12T00:52:23;14.98;;;7.57;;
12818;SDS011;6474;53.474;9.894;2023-09-12T00:54:52;12.95;;;7.38;;
12818;SDS011;6474;53.474;9.894;2023-09-12T00:57:21;11.43;;;7.05;;
12818;SDS011;6474;53.474;9.894;2023-09-12T00:59:49;12.20;;;7.97;;
12818;SDS011;6474;53.474;9.894;2023-09-12T01:02:19;14.52;;;8.00;;
12818;SDS011;6474;53.474;9.894;2023-09-12T01:04:48;14.93;;;7.88;;
12818;SDS011;6474;53.474;9.894;2023-09-12T01:07:16;10.30;;;6.97;;
12818;SDS011;6474;53.474;9.894;2023-09-12T01:09:46;17.13;;;8.60;;
12818;SDS011;6474;53.474;9.894;2023-09-12T01:12:14;15.48;;;8.20;;
12818;SDS011;6474;53.474;9.894;2023-09-12T01:14:44;12.25;;;7.35;;
12818;SDS011;6474;53.474;9.894;2023-09-12T01:17:12;14.55;;;8.38;;
12818;SDS011;6474;53.474;9.894;2023-09-12T01:19:40;14.38;;;7.90;;
12818;SDS011;6474;53.474;9.894;2023-09-12T01:27:56;11.45;;;7.55;;
12818;SDS011;6474;53.474;9.894;2023-09-12T01:30:29;11.73;;;6.97;;
12818;SDS011;6474;53.474;9.894;2023-09-12T01:33:00;14.40;;;7.53;;
12818;SDS011;6474;53.474;9.894;2023-09-12T01:35:28;12.30;;;7.28;;
12818;SDS011;6474;53.474;9.894;2023-09-12T01:37:56;12.93;;;7.40;;
12818;SDS011;6474;53.474;9.894;2023-09-12T01:40:27;12.02;;;7.20;;
12818;SDS011;6474;53.474;9.894;2023-09-12T01:43:02;10.43;;;6.93;;
12818;SDS011;6474;53.474;9.894;2023-09-12T01:45:31;12.82;;;7.28;;
12818;SDS011;6474;53.474;9.894;2023-09-12T01:48:00;11.60;;;7.47;;
12818;SDS011;6474;53.474;9.894;2023-09-12T01:50:30;13.95;;;7.90;;
12818;SDS011;6474;53.474;9.894;2023-09-12T01:53:01;15.45;;;8.10;;
12818;SDS011;6474;53.474;9.894;2023-09-12T01:55:30;12.45;;;7.75;;
12818;SDS011;6474;53.474;9.894;2023-09-12T01:57:59;9.73;;;6.60;;
12818;SDS011;6474;53.474;9.894;2023-09-12T02:00:28;13.45;;;7.57;;
12818;SDS011;6474;53.474;9.894;2023-09-12T02:02:57;10.45;;;7.32;;
12818;SDS011;6474;53.474;9.894;2023-09-12T02:05:25;16.63;;;8.30;;
12818;SDS011;6474;53.474;9.894;2023-09-12T02:07:54;11.82;;;7.63;;
12818;SDS011;6474;53.474;9.894;2023-09-12T02:10:23;11.30;;;7.60;;
12818;SDS011;6474;53.474;9.894;2023-09-12T02:12:51;15.50;;;7.68;;
12818;SDS011;6474;53.474;9.894;2023-09-12T02:15:19;12.43;;;8.07;;
12818;SDS011;6474;53.474;9.894;2023-09-12T02:17:48;12.00;;;7.38;;
12818;SDS011;6474;53.474;9.894;2023-09-12T02:20:17;11.70;;;7.80;;
12818;SDS011;6474;53.474;9.894;2023-09-12T02:22:45;13.80;;;8.35;;
12818;SDS011;6474;53.474;9.894;2023-09-12T02:25:13;13.65;;;7.78;;
12818;SDS011;6474;53.474;9.894;2023-09-12T02:27:42;13.48;;;8.45;;
12818;SDS011;6474;53.474;9.894;2023-09-12T02:30:10;19.17;;;9.25;;
12818;SDS011;6474;53.474;9.894;2023-09-12T02:32:38;14.48;;;8.15;;
12818;SDS011;6474;53.474;9.894;2023-09-12T02:35:07;14.40;;;8.20;;
12818;SDS011;6474;53.474;9.894;2023-09-12T02:37:35;13.20;;;7.78;;
12818;SDS011;6474;53.474;9.894;2023-09-12T02:40:04;16.20;;;8.10;;
12818;SDS011;6474;53.474;9.894;2023-09-12T02:42:32;13.18;;;7.10;;
12818;SDS011;6474;53.474;9.894;2023-09-12T02:45:01;13.63;;;7.40;;
12818;SDS011;6474;53.474;9.894;2023-09-12T02:47:28;19.25;;;7.10;;
12818;SDS011;6474;53.474;9.894;2023-09-12T02:49:57;26.83;;;9.07;;
12818;SDS011;6474;53.474;9.894;2023-09-12T02:52:26;16.77;;;8.05;;
12818;SDS011;6474;53.474;9.894;2023-09-12T02:54:54;11.90;;;7.53;;
12818;SDS011;6474;53.474;9.894;2023-09-12T02:57:22;13.57;;;7.75;;
12818;SDS011;6474;53.474;9.894;2023-09-12T02:59:50;19.35;;;8.63;;
12818;SDS011;6474;53.474;9.894;2023-09-12T03:02:18;12.82;;;7.88;;
12818;SDS011;6474;53.474;9.894;2023-09-12T03:04:46;18.60;;;8.65;;
12818;SDS011;6474;53.474;9.894;2023-09-12T03:07:14;12.57;;;7.10;;
12818;SDS011;6474;53.474;9.894;2023-09-12T03:09:43;11.93;;;6.88;;
12818;SDS011;6474;53.474;9.894;2023-09-12T03:12:11;15.45;;;8.40;;
12818;SDS011;6474;53.474;9.894;2023-09-12T03:14:39;15.30;;;7.90;;
12818;SDS011;6474;53.474;9.894;2023-09-12T03:17:07;14.60;;;7.35;;
12818;SDS011;6474;53.474;9.894;2023-09-12T03:19:35;14.98;;;7.30;;
12818;SDS011;6474;53.474;9.894;2023-09-12T03:22:03;13.07;;;8.18;;
12818;SDS011;6474;53.474;9.894;2023-09-12T03:24:31;24.58;;;8.10;;
12818;SDS011;6474;53.474;9.894;2023-09-12T03:27:01;16.73;;;8.23;;
12818;SDS011;6474;53.474;9.894;2023-09-12T03:29:29;12.00;;;7.95;;
12818;SDS011;6474;53.474;9.894;2023-09-12T03:31:58;12.77;;;7.10;;
12818;SDS011;6474;53.474;9.894;2023-09-12T03:34:26;19.95;;;7.03;;
12818;SDS011;6474;53.474;9.894;2023-09-12T03:36:54;13.30;;;8.25;;
12818;SDS011;6474;53.474;9.894;2023-09-12T03:39:22;10.00;;;7.43;;
12818;SDS011;6474;53.474;9.894;2023-09-12T03:41:51;13.45;;;7.82;;
12818;SDS011;6474;53.474;9.894;2023-09-12T03:44:21;17.63;;;7.90;;
12818;SDS011;6474;53.474;9.894;2023-09-12T03:46:48;15.15;;;7.80;;
12818;SDS011;6474;53.474;9.894;2023-09-12T03:49:18;12.60;;;8.10;;
12818;SDS011;6474;53.474;9.894;2023-09-12T03:51:46;17.40;;;7.68;;
12818;SDS011;6474;53.474;9.894;2023-09-12T03:54:16;12.15;;;7.18;;
12818;SDS011;6474;53.474;9.894;2023-09-12T03:56:44;15.50;;;7.47;;
12818;SDS011;6474;53.474;9.894;2023-09-12T03:59:12;15.90;;;7.32;;
12818;SDS011;6474;53.474;9.894;2023-09-12T04:01:42;12.35;;;7.57;;
12818;SDS011;6474;53.474;9.894;2023-09-12T04:04:10;11.68;;;6.55;;
12818;SDS011;6474;53.474;9.894;2023-09-12T04:06:38;13.77;;;7.35;;
12818;SDS011;6474;53.474;9.894;2023-09-12T04:09:06;11.27;;;6.30;;
12818;SDS011;6474;53.474;9.894;2023-09-12T04:11:34;15.00;;;7.45;;
12818;SDS011;6474;53.474;9.894;2023-09-12T04:14:13;12.40;;;7.47;;
12818;SDS011;6474;53.474;9.894;2023-09-12T04:16:43;13.02;;;7.40;;
12818;SDS011;6474;53.474;9.894;2023-09-12T04:19:11;10.48;;;6.03;;
12818;SDS011;6474;53.474;9.894;2023-09-12T04:21:40;16.60;;;7.43;;
12818;SDS011;6474;53.474;9.894;2023-09-12T04:24:08;16.45;;;7.88;;
12818;SDS011;6474;53.474;9.894;2023-09-12T04:26:37;16.15;;;7.15;;
12818;SDS011;6474;53.474;9.894;2023-09-12T04:29:05;14.35;;;7.28;;
12818;SDS011;6474;53.474;9.894;2023-09-12T04:31:34;16.70;;;7.40;;
12818;SDS011;6474;53.474;9.894;2023-09-12T04:34:03;10.82;;;6.95;;
12818;SDS011;6474;53.474;9.894;2023-09-12T04:36:32;10.95;;;6.38;;
12818;SDS011;6474;53.474;9.894;2023-09-12T04:39:00;15.20;;;7.63;;
12818;SDS011;6474;53.474;9.894;2023-09-12T04:41:28;14.88;;;7.47;;
12818;SDS011;6474;53.474;9.894;2023-09-12T04:43:57;7.63;;;5.70;;
12818;SDS011;6474;53.474;9.894;2023-09-12T04:46:27;11.68;;;7.25;;
12818;SDS011;6474;53.474;9.894;2023-09-12T04:48:55;11.60;;;6.55;;
12818;SDS011;6474;53.474;9.894;2023-09-12T04:51:24;18.08;;;7.35;;
12818;SDS011;6474;53.474;9.894;2023-09-12T04:53:53;11.68;;;6.95;;
12818;SDS011;6474;53.474;9.894;2023-09-12T04:56:21;10.10;;;6.50;;
12818;SDS011;6474;53.474;9.894;2023-09-12T04:58:50;13.30;;;6.85;;
12818;SDS011;6474;53.474;9.894;2023-09-12T05:01:19;12.45;;;7.45;;
12818;SDS011;6474;53.474;9.894;2023-09-12T05:03:47;13.88;;;6.63;;
12818;SDS011;6474;53.474;9.894;2023-09-12T05:06:14;12.88;;;6.63;;
12818;SDS011;6474;53.474;9.894;2023-09-12T05:08:44;12.20;;;6.88;;
12818;SDS011;6474;53.474;9.894;2023-09-12T05:11:12;13.07;;;7.07;;
12818;SDS011;6474;53.474;9.894;2023-09-12T05:13:39;12.13;;;6.90;;
12818;SDS011;6474;53.474;9.894;2023-09-12T05:16:07;16.73;;;8.60;;
12818;SDS011;6474;53.474;9.894;2023-09-12T05:18:35;14.63;;;8.10;;
12818;SDS011;6474;53.474;9.894;2023-09-12T05:21:03;14.57;;;7.50;;
12818;SDS011;6474;53.474;9.894;2023-09-12T05:23:31;17.73;;;6.35;;
12818;SDS011;6474;53.474;9.894;2023-09-12T05:26:00;13.38;;;7.35;;
12818;SDS011;6474;53.474;9.894;2023-09-12T05:28:29;15.30;;;6.63;;
12818;SDS011;6474;53.474;9.894;2023-09-12T05:30:56;12.15;;;6.50;;
12818;SDS011;6474;53.474;9.894;2023-09-12T05:33:24;13.35;;;6.95;;
12818;SDS011;6474;53.474;9.894;2023-09-12T05:35:52;9.77;;;6.03;;
12818;SDS011;6474;53.474;9.894;2023-09-12T05:38:20;10.77;;;6.38;;
12818;SDS011;6474;53.474;9.894;2023-09-12T05:40:49;11.35;;;5.78;;
12818;SDS011;6474;53.474;9.894;2023-09-12T05:43:18;12.20;;;6.90;;
12818;SDS011;6474;53.474;9.894;2023-09-12T05:45:46;9.32;;;5.82;;
12818;SDS011;6474;53.474;9.894;2023-09-12T05:48:14;13.90;;;5.97;;
12818;SDS011;6474;53.474;9.894;2023-09-12T05:50:42;13.90;;;7.10;;
12818;SDS011;6474;53.474;9.894;2023-09-12T05:53:10;11.65;;;6.38;;
12818;SDS011;6474;53.474;9.894;2023-09-12T05:55:38;11.75;;;6.95;;
12818;SDS011;6474;53.474;9.894;2023-09-12T05:58:06;10.93;;;6.68;;
12818;SDS011;6474;53.474;9.894;2023-09-12T06:00:35;11.35;;;6.43;;
12818;SDS011;6474;53.474;9.894;2023-09-12T06:03:04;14.65;;;6.90;;
12818;SDS011;6474;53.474;9.894;2023-09-12T06:05:31;14.80;;;7.65;;
12818;SDS011;6474;53.474;9.894;2023-09-12T06:07:59;14.75;;;7.03;;
12818;SDS011;6474;53.474;9.894;2023-09-12T06:10:27;12.43;;;6.75;;
12818;SDS011;6474;53.474;9.894;2023-09-12T06:12:55;14.15;;;6.70;;
12818;SDS011;6474;53.474;9.894;2023-09-12T06:15:23;13.07;;;7.38;;
12818;SDS011;6474;53.474;9.894;2023-09-12T06:17:52;14.60;;;7.47;;
12818;SDS011;6474;53.474;9.894;2023-09-12T06:20:21;14.98;;;7.30;;
12818;SDS011;6474;53.474;9.894;2023-09-12T06:22:49;11.95;;;7.43;;
12818;SDS011;6474;53.474;9.894;2023-09-12T06:25:17;9.85;;;6.40;;
12818;SDS011;6474;53.474;9.894;2023-09-12T06:27:45;14.80;;;6.85;;
12818;SDS011;6474;53.474;9.894;2023-09-12T06:30:13;11.50;;;6.35;;
12818;SDS011;6474;53.474;9.894;2023-09-12T06:32:41;12.95;;;6.90;;
12818;SDS011;6474;53.474;9.894;2023-09-12T06:35:11;14.68;;;7.35;;
12818;SDS011;6474;53.474;9.894;2023-09-12T06:37:39;13.73;;;7.60;;
12818;SDS011;6474;53.474;9.894;2023-09-12T06:40:07;12.60;;;6.30;;
12818;SDS011;6474;53.474;9.894;2023-09-12T06:42:35;14.98;;;7.20;;
12818;SDS011;6474;53.474;9.894;2023-09-12T06:45:03;17.30;;;7.03;;
12818;SDS011;6474;53.474;9.894;2023-09-12T06:47:31;16.85;;;7.03;;
12818;SDS011;6474;53.474;9.894;2023-09-12T06:49:59;11.98;;;6.78;;
12818;SDS011;6474;53.474;9.894;2023-09-12T06:52:29;9.38;;;6.30;;
12818;SDS011;6474;53.474;9.894;2023-09-12T06:54:58;14.52;;;6.57;;
12818;SDS011;6474;53.474;9.894;2023-09-12T06:57:26;13.38;;;7.10;;
12818;SDS011;6474;53.474;9.894;2023-09-12T06:59:55;14.73;;;6.80;;
12818;SDS011;6474;53.474;9.894;2023-09-12T07:02:23;12.43;;;7.15;;
12818;SDS011;6474;53.474;9.894;2023-09-12T07:04:51;11.45;;;6.47;;
12818;SDS011;6474;53.474;9.894;2023-09-12T07:07:19;11.07;;;6.60;;
12818;SDS011;6474;53.474;9.894;2023-09-12T07:09:49;12.18;;;6.88;;
12818;SDS011;6474;53.474;9.894;2023-09-12T07:12:16;13.30;;;6.32;;
12818;SDS011;6474;53.474;9.894;2023-09-12T07:14:44;9.10;;;6.30;;
12818;SDS011;6474;53.474;9.894;2023-09-12T07:17:12;11.77;;;7.13;;
12818;SDS011;6474;53.474;9.894;2023-09-12T07:19:40;10.88;;;5.78;;
12818;SDS011;6474;53.474;9.894;2023-09-12T07:22:10;10.10;;;6.68;;
12818;SDS011;6474;53.474;9.894;2023-09-12T07:24:38;10.70;;;6.43;;
12818;SDS011;6474;53.474;9.894;2023-09-12T07:27:07;10.77;;;7.38;;
12818;SDS011;6474;53.474;9.894;2023-09-12T07:29:35;13.20;;;6.55;;
12818;SDS011;6474;53.474;9.894;2023-09-12T07:32:03;8.10;;;5.90;;
12818;SDS011;6474;53.474;9.894;2023-09-12T07:34:31;13.95;;;6.82;;
12818;SDS011;6474;53.474;9.894;2023-09-12T07:37:00;8.60;;;5.95;;
12818;SDS011;6474;53.474;9.894;2023-09-12T07:39:28;8.40;;;6.28;;
12818;SDS011;6474;53.474;9.894;2023-09-12T07:41:56;11.85;;;6.85;;
12818;SDS011;6474;53.474;9.894;2023-09-12T07:44:26;11.43;;;6.28;;
12818;SDS011;6474;53.474;9.894;2023-09-12T07:46:55;14.88;;;7.05;;
12818;SDS011;6474;53.474;9.894;2023-09-12T07:49:23;11.30;;;6.20;;
12818;SDS011;6474;53.474;9.894;2023-09-12T07:51:52;10.95;;;6.30;;
12818;SDS011;6474;53.474;9.894;2023-09-12T07:54:22;9.48;;;5.57;;
12818;SDS011;6474;53.474;9.894;2023-09-12T07:56:50;8.25;;;6.00;;
12818;SDS011;6474;53.474;9.894;2023-09-12T07:59:18;9.25;;;5.90;;
12818;SDS011;6474;53.474;9.894;2023-09-12T08:01:48;11.18;;;6.40;;
12818;SDS011;6474;53.474;9.894;2023-09-12T08:04:15;8.52;;;5.55;;
12818;SDS011;6474;53.474;9.894;2023-09-12T08:06:44;11.30;;;6.88;;
12818;SDS011;6474;53.474;9.894;2023-09-12T08:09:23;8.05;;;5.43;;
12818;SDS011;6474;53.474;9.894;2023-09-12T08:12:12;10.38;;;6.13;;
12818;SDS011;6474;53.474;9.894;2023-09-12T08:14:40;7.88;;;5.78;;
12818;SDS011;6474;53.474;9.894;2023-09-12T08:17:09;10.50;;;6.03;;
12818;SDS011;6474;53.474;9.894;2023-09-12T08:19:37;10.38;;;6.30;;
12818;SDS011;6474;53.474;9.894;2023-09-12T08:22:05;9.70;;;6.47;;
12818;SDS011;6474;53.474;9.894;2023-09-12T08:24:34;9.32;;;5.70;;
12818;SDS011;6474;53.474;9.894;2023-09-12T08:27:02;7.60;;;5.63;;
12818;SDS011;6474;53.474;9.894;2023-09-12T08:29:31;8.73;;;5.80;;
12818;SDS011;6474;53.474;9.894;2023-09-12T08:32:00;10.43;;;6.13;;
12818;SDS011;6474;53.474;9.894;2023-09-12T08:34:30;11.27;;;6.18;;
12818;SDS011;6474;53.474;9.894;2023-09-12T08:36:58;6.88;;;5.50;;
12818;SDS011;6474;53.474;9.894;2023-09-12T08:39:27;8.93;;;6.35;;
12818;SDS011;6474;53.474;9.894;2023-09-12T08:42:06;10.25;;;6.15;;
12818;SDS011;6474;53.474;9.894;2023-09-12T08:44:38;8.75;;;6.00;;
12818;SDS011;6474;53.474;9.894;2023-09-12T08:47:07;14.45;;;6.88;;
12818;SDS011;6474;53.474;9.894;2023-09-12T08:49:38;13.00;;;6.55;;
12818;SDS011;6474;53.474;9.894;2023-09-12T08:52:08;12.27;;;6.65;;
12818;SDS011;6474;53.474;9.894;2023-09-12T08:54:36;10.55;;;5.82;;
12818;SDS011;6474;53.474;9.894;2023-09-12T08:57:04;13.05;;;6.68;;
12818;SDS011;6474;53.474;9.894;2023-09-12T08:59:33;9.38;;;5.70;;
12818;SDS011;6474;53.474;9.894;2023-09-12T09:02:02;14.70;;;7.35;;
12818;SDS011;6474;53.474;9.894;2023-09-12T09:04:32;14.07;;;6.65;;
12818;SDS011;6474;53.474;9.894;2023-09-12T09:07:04;17.02;;;7.18;;
12818;SDS011;6474;53.474;9.894;2023-09-12T09:09:32;9.18;;;6.22;;
12818;SDS011;6474;53.474;9.894;2023-09-12T09:12:00;11.60;;;6.47;;
12818;SDS011;6474;53.474;9.894;2023-09-12T09:14:29;12.25;;;6.82;;
12818;SDS011;6474;53.474;9.894;2023-09-12T09:16:57;10.88;;;6.88;;
12818;SDS011;6474;53.474;9.894;2023-09-12T09:19:29;10.40;;;6.30;;
12818;SDS011;6474;53.474;9.894;2023-09-12T09:22:09;9.95;;;5.97;;
12818;SDS011;6474;53.474;9.894;2023-09-12T09:24:37;10.02;;;6.05;;
12818;SDS011;6474;53.474;9.894;2023-09-12T09:27:05;15.07;;;6.65;;
12818;SDS011;6474;53.474;9.894;2023-09-12T09:29:45;11.77;;;6.53;;
12818;SDS011;6474;53.474;9.894;2023-09-12T09:32:17;9.15;;;5.80;;
12818;SDS011;6474;53.474;9.894;2023-09-12T09:34:48;8.77;;;5.70;;
12818;SDS011;6474;53.474;9.894;2023-09-12T09:37:17;8.95;;;6.65;;
12818;SDS011;6474;53.474;9.894;2023-09-12T09:39:47;10.10;;;6.53;;
12818;SDS011;6474;53.474;9.894;2023-09-12T09:42:18;10.73;;;6.30;;
12818;SDS011;6474;53.474;9.894;2023-09-12T09:44:47;8.27;;;6.18;;
12818;SDS011;6474;53.474;9.894;2023-09-12T09:47:15;10.55;;;6.35;;
12818;SDS011;6474;53.474;9.894;2023-09-12T09:49:46;8.65;;;5.80;;
12818;SDS011;6474;53.474;9.894;2023-09-12T09:52:14;7.90;;;6.07;;
12818;SDS011;6474;53.474;9.894;2023-09-12T09:54:44;10.30;;;5.70;;
12818;SDS011;6474;53.474;9.894;2023-09-12T09:57:12;11.95;;;6.20;;
12818;SDS011;6474;53.474;9.894;2023-09-12T09:59:40;9.05;;;5.90;;
12818;SDS011;6474;53.474;9.894;2023-09-12T10:02:10;8.25;;;6.22;;
12818;SDS011;6474;53.474;9.894;2023-09-12T10:04:45;6.22;;;5.60;;
12818;SDS011;6474;53.474;9.894;2023-09-12T10:07:25;9.10;;;5.90;;
12818;SDS011;6474;53.474;9.894;2023-09-12T10:09:55;8.68;;;6.32;;
12818;SDS011;6474;53.474;9.894;2023-09-12T10:12:25;11.43;;;7.20;;
12818;SDS011;6474;53.474;9.894;2023-09-12T10:14:57;7.55;;;5.75;;
12818;SDS011;6474;53.474;9.894;2023-09-12T10:17:33;9.73;;;6.22;;
12818;SDS011;6474;53.474;9.894;2023-09-12T10:20:07;6.45;;;5.75;;
12818;SDS011;6474;53.474;9.894;2023-09-12T10:22:43;7.00;;;6.30;;
12818;SDS011;6474;53.474;9.894;2023-09-12T10:25:20;12.70;;;6.50;;
12818;SDS011;6474;53.474;9.894;2023-09-12T10:27:49;9.27;;;6.07;;
12818;SDS011;6474;53.474;9.894;2023-09-12T10:30:20;14.82;;;6.22;;
12818;SDS011;6474;53.474;9.894;2023-09-12T10:32:49;12.80;;;6.65;;
12818;SDS011;6474;53.474;9.894;2023-09-12T10:35:18;10.18;;;6.35;;
12818;SDS011;6474;53.474;9.894;2023-09-12T10:37:47;8.93;;;6.47;;
12818;SDS011;6474;53.474;9.894;2023-09-12T10:40:18;12.07;;;6.80;;
12818;SDS011;6474;53.474;9.894;2023-09-12T10:42:48;10.95;;;6.35;;
12818;SDS011;6474;53.474;9.894;2023-09-12T10:45:18;9.38;;;5.90;;
12818;SDS011;6474;53.474;9.894;2023-09-12T10:47:48;10.55;;;6.68;;
12818;SDS011;6474;53.474;9.894;2023-09-12T10:50:16;8.13;;;6.07;;
12818;SDS011;6474;53.474;9.894;2023-09-12T10:52:45;9.93;;;6.70;;
12818;SDS011;6474;53.474;9.894;2023-09-12T10:55:15;9.40;;;6.47;;
12818;SDS011;6474;53.474;9.894;2023-09-12T10:58:01;7.65;;;5.90;;
12818;SDS011;6474;53.474;9.894;2023-09-12T11:00:30;8.32;;;6.15;;
12818;SDS011;6474;53.474;9.894;2023-09-12T11:06:03;7.80;;;5.85;;
12818;SDS011;6474;53.474;9.894;2023-09-12T11:08:35;8.90;;;5.90;;
12818;SDS011;6474;53.474;9.894;2023-09-12T11:11:17;9.27;;;6.45;;
12818;SDS011;6474;53.474;9.894;2023-09-12T11:13:49;12.32;;;6.18;;
12818;SDS011;6474;53.474;9.894;2023-09-12T11:16:30;9.82;;;6.38;;
12818;SDS011;6474;53.474;9.894;2023-09-12T11:19:14;7.53;;;5.95;;
12818;SDS011;6474;53.474;9.894;2023-09-12T11:21:43;7.82;;;5.45;;
12818;SDS011;6474;53.474;9.894;2023-09-12T11:24:12;7.15;;;5.28;;
12818;SDS011;6474;53.474;9.894;2023-09-12T11:26:52;5.85;;;5.22;;
12818;SDS011;6474;53.474;9.894;2023-09-12T11:29:23;7.18;;;5.53;;
12818;SDS011;6474;53.474;9.894;2023-09-12T11:31:55;5.22;;;4.72;;
12818;SDS011;6474;53.474;9.894;2023-09-12T11:34:25;5.63;;;4.82;;
12818;SDS011;6474;53.474;9.894;2023-09-12T11:36:55;6.53;;;4.72;;
12818;SDS011;6474;53.474;9.894;2023-09-12T11:39:28;4.75;;;4.28;;
12818;SDS011;6474;53.474;9.894;2023-09-12T11:41:57;4.28;;;3.88;;
12818;SDS011;6474;53.474;9.894;2023-09-12T11:44:27;9.18;;;5.22;;
12818;SDS011;6474;53.474;9.894;2023-09-12T11:46:58;5.68;;;4.78;;
12818;SDS011;6474;53.474;9.894;2023-09-12T11:49:34;5.18;;;4.68;;
12818;SDS011;6474;53.474;9.894;2023-09-12T11:52:07;4.53;;;4.13;;
12818;SDS011;6474;53.474;9.894;2023-09-12T11:54:36;3.90;;;3.60;;
12818;SDS011;6474;53.474;9.894;2023-09-12T11:57:06;4.30;;;4.00;;
12818;SDS011;6474;53.474;9.894;2023-09-12T11:59:38;4.05;;;3.63;;
12818;SDS011;6474;53.474;9.894;2023-09-12T12:02:07;4.95;;;4.55;;
12818;SDS011;6474;53.474;9.894;2023-09-12T12:04:38;4.63;;;3.55;;
12818;SDS011;6474;53.474;9.894;2023-09-12T12:07:07;4.60;;;3.60;;
12818;SDS011;6474;53.474;9.894;2023-09-12T12:09:35;4.00;;;3.70;;
12818;SDS011;6474;53.474;9.894;2023-09-12T12:12:03;14.07;;;4.18;;
12818;SDS011;6474;53.474;9.894;2023-09-12T12:14:36;4.13;;;3.70;;
12818;SDS011;6474;53.474;9.894;2023-09-12T12:17:06;4.45;;;3.78;;
12818;SDS011;6474;53.474;9.894;2023-09-12T12:19:35;3.92;;;3.55;;
12818;SDS011;6474;53.474;9.894;2023-09-12T12:22:03;3.63;;;3.42;;
12818;SDS011;6474;53.474;9.894;2023-09-12T12:24:37;3.60;;;3.35;;
12818;SDS011;6474;53.474;9.894;2023-09-12T12:27:05;3.63;;;3.42;;
12818;SDS011;6474;53.474;9.894;2023-09-12T12:29:34;4.50;;;3.88;;
12818;SDS011;6474;53.474;9.894;2023-09-12T12:32:05;3.55;;;3.35;;
12818;SDS011;6474;53.474;9.894;2023-09-12T12:34:35;3.85;;;3.55;;
12818;SDS011;6474;53.474;9.894;2023-09-12T12:37:27;3.67;;;3.38;;
12818;SDS011;6474;53.474;9.894;2023-09-12T12:39:57;3.97;;;3.60;;
12818;SDS011;6474;53.474;9.894;2023-09-12T12:42:28;3.95;;;3.70;;
12818;SDS011;6474;53.474;9.894;2023-09-12T12:45:14;3.58;;;3.30;;
12818;SDS011;6474;53.474;9.894;2023-09-12T12:47:45;3.92;;;3.63;;
12818;SDS011;6474;53.474;9.894;2023-09-12T12:50:13;4.15;;;3.45;;
12818;SDS011;6474;53.474;9.894;2023-09-12T12:52:45;3.50;;;3.20;;
12818;SDS011;6474;53.474;9.894;2023-09-12T12:55:14;3.70;;;3.40;;
12818;SDS011;6474;53.474;9.894;2023-09-12T12:57:47;3.70;;;3.17;;
12818;SDS011;6474;53.474;9.894;2023-09-12T13:00:16;3.78;;;3.47;;
12818;SDS011;6474;53.474;9.894;2023-09-12T13:02:48;3.00;;;2.80;;
12818;SDS011;6474;53.474;9.894;2023-09-12T13:05:20;3.72;;;3.50;;
12818;SDS011;6474;53.474;9.894;2023-09-12T13:07:53;3.70;;;3.17;;
12818;SDS011;6474;53.474;9.894;2023-09-12T13:10:22;2.78;;;2.65;;
12818;SDS011;6474;53.474;9.894;2023-09-12T13:12:50;3.95;;;3.25;;
12818;SDS011;6474;53.474;9.894;2023-09-12T13:15:18;4.07;;;3.65;;
12818;SDS011;6474;53.474;9.894;2023-09-12T13:17:46;3.50;;;3.30;;
12818;SDS011;6474;53.474;9.894;2023-09-12T13:20:16;4.63;;;3.45;;
12818;SDS011;6474;53.474;9.894;2023-09-12T13:22:45;3.45;;;3.25;;
12818;SDS011;6474;53.474;9.894;2023-09-12T13:25:12;3.97;;;3.65;;
12818;SDS011;6474;53.474;9.894;2023-09-12T13:27:41;2.92;;;2.83;;
12818;SDS011;6474;53.474;9.894;2023-09-12T13:30:09;3.47;;;3.28;;
12818;SDS011;6474;53.474;9.894;2023-09-12T13:32:38;4.43;;;4.03;;
12818;SDS011;6474;53.474;9.894;2023-09-12T13:35:06;4.05;;;3.75;;
12818;SDS011;6474;53.474;9.894;2023-09-12T13:37:35;6.50;;;4.65;;
12818;SDS011;6474;53.474;9.894;2023-09-12T13:40:03;4.53;;;4.22;;
12818;SDS011;6474;53.474;9.894;2023-09-12T13:42:35;5.40;;;5.00;;
12818;SDS011;6474;53.474;9.894;2023-09-12T13:45:04;4.68;;;4.38;;
12818;SDS011;6474;53.474;9.894;2023-09-12T13:47:32;4.03;;;3.72;;
12818;SDS011;6474;53.474;9.894;2023-09-12T13:50:00;4.63;;;4.20;;
12818;SDS011;6474;53.474;9.894;2023-09-12T13:52:28;4.97;;;4.57;;
12818;SDS011;6474;53.474;9.894;2023-09-12T13:54:58;4.35;;;4.05;;
12818;SDS011;6474;53.474;9.894;2023-09-12T13:57:29;4.20;;;3.50;;
12818;SDS011;6474;53.474;9.894;2023-09-12T14:00:01;4.55;;;4.25;;
12818;SDS011;6474;53.474;9.894;2023-09-12T14:02:29;4.50;;;4.20;;
12818;SDS011;6474;53.474;9.894;2023-09-12T14:04:57;4.05;;;3.70;;
12818;SDS011;6474;53.474;9.894;2023-09-12T14:07:38;4.38;;;4.07;;
12818;SDS011;6474;53.474;9.894;2023-09-12T14:10:08;4.72;;;4.32;;
12818;SDS011;6474;53.474;9.894;2023-09-12T14:12:45;4.30;;;3.92;;
12818;SDS011;6474;53.474;9.894;2023-09-12T14:15:13;4.43;;;4.00;;
12818;SDS011;6474;53.474;9.894;2023-09-12T14:17:41;4.50;;;4.10;;
12818;SDS011;6474;53.474;9.894;2023-09-12T14:20:21;4.97;;;4.53;;
12818;SDS011;6474;53.474;9.894;2023-09-12T14:22:50;4.45;;;4.15;;
12818;SDS011;6474;53.474;9.894;2023-09-12T14:25:19;4.00;;;3.70;;
12818;SDS011;6474;53.474;9.894;2023-09-12T14:27:48;4.70;;;4.30;;
12818;SDS011;6474;53.474;9.894;2023-09-12T14:30:15;4.78;;;4.30;;
12818;SDS011;6474;53.474;9.894;2023-09-12T14:32:44;4.88;;;3.67;;
12818;SDS011;6474;53.474;9.894;2023-09-12T14:35:12;4.50;;;4.10;;
12818;SDS011;6474;53.474;9.894;2023-09-12T14:37:41;4.47;;;4.10;;
12818;SDS011;6474;53.474;9.894;2023-09-12T14:40:09;4.70;;;4.25;;
12818;SDS011;6474;53.474;9.894;2023-09-12T14:42:44;3.70;;;3.40;;
12818;SDS011;6474;53.474;9.894;2023-09-12T14:45:12;4.13;;;3.78;;
12818;SDS011;6474;53.474;9.894;2023-09-12T14:47:41;3.90;;;3.67;;
12818;SDS011;6474;53.474;9.894;2023-09-12T14:50:09;3.88;;;3.58;;
12818;SDS011;6474;53.474;9.894;2023-09-12T14:52:36;4.03;;;3.72;;
12818;SDS011;6474;53.474;9.894;2023-09-12T14:55:06;4.70;;;4.00;;
12818;SDS011;6474;53.474;9.894;2023-09-12T14:57:35;4.30;;;3.90;;
12818;SDS011;6474;53.474;9.894;2023-09-12T15:00:05;3.58;;;3.20;;
12818;SDS011;6474;53.474;9.894;2023-09-12T15:02:33;4.63;;;4.28;;
12818;SDS011;6474;53.474;9.894;2023-09-12T15:05:02;4.13;;;3.58;;
12818;SDS011;6474;53.474;9.894;2023-09-12T15:07:30;3.75;;;3.55;;
12818;SDS011;6474;53.474;9.894;2023-09-12T15:09:59;3.63;;;3.42;;
12818;SDS011;6474;53.474;9.894;2023-09-12T15:12:28;3.97;;;3.65;;
12818;SDS011;6474;53.474;9.894;2023-09-12T15:14:56;3.88;;;3.67;;